Latest Weather Observations for Neptune Island

IDS60801

Issued at 12:31 pm CST Thursday 30 June 2016 (issued every 30 minutes, with the page automatically refreshed every 10 minutes)

About weather observations | Map of weather stations | Latest weather observations for SA | Other Formats
Station Details ID: 018115 Name: NEPTUNE ISLAND Lat: -35.34 Lon: 136.12 Height: 32.0 m
Data from the previous 72 hours. | See also: Recent months at Neptune Island
Date/Time
CST
Temp
°C
App
Temp
°C
Dew
Point
°C
Rel
Hum
%
Delta-T
°C
Wind Press
QNH
hPa
Press
MSL
hPa
Rain since
9am
mm
Dir  Spd
km/h
Gust
km/h
Spd
kts
Gust
kts
30/12:30pm 13.2 0.9 6.8 65 3.1 WSW 61 76 33 41 1014.1 1014.1 0.0
30/12:00pm 12.7 0.9 7.6 71 2.5 WSW 59 72 32 39 1014.2 1014.2 0.0
30/11:30am 12.5 -0.5 7.0 69 2.6 WSW 65 78 35 42 1013.9 1013.9 0.0
30/11:00am 13.6 1.8 7.6 67 3.0 WSW 59 76 32 41 1013.6 1013.6 0.0
30/10:30am 13.7 0.6 6.8 63 3.3 WSW 65 76 35 41 1013.4 1013.4 0.0
30/10:11am 13.8 1.5 6.9 63 3.3 WSW 61 80 33 43 1013.0 1013.0 0.0
30/10:00am 13.5 0.0 6.6 63 3.3 WSW 67 80 36 43 1012.7 1012.7 0.0
30/09:30am 13.8 -0.1 7.6 66 3.1 WSW 70 83 38 45 1011.9 1011.9 0.0
30/09:04am 13.7 1.8 8.5 71 2.6 WSW 61 80 33 43 1011.8 1011.8 0.0
30/09:00am 13.7 1.0 8.3 70 2.7 WSW 65 80 35 43 1011.7 1011.7 5.6
30/08:55am 13.7 1.8 8.5 71 2.6 WSW 61 80 33 43 1011.5 1011.5 5.6
30/08:30am 13.0 -0.2 9.6 80 1.7 WSW 69 83 37 45 1011.1 1011.1 5.6
30/08:17am 13.5 1.9 9.9 79 1.9 WSW 61 80 33 43 1010.9 1010.9 5.6
30/08:00am 13.5 1.9 9.7 78 2.0 WSW 61 72 33 39 1010.6 1010.6 5.6
30/07:30am 14.1 0.8 9.9 76 2.2 WSW 70 83 38 45 1009.8 1009.8 5.6
30/07:00am 13.9 2.9 10.5 80 1.8 W 59 82 32 44 1009.2 1009.2 5.6
30/06:30am 12.6 1.3 10.8 89 0.9 W 61 82 33 44 1009.3 1009.3 5.2
30/06:18am 12.0 1.0 8.5 79 1.7 WNW 56 95 30 51 1008.6 1008.6 4.2
30/06:17am 13.6 3.7 9.8 78 2.0 WNW 52 93 28 50 1008.9 1008.9 4.0
30/06:00am 14.7 4.5 10.1 74 2.4 W 54 65 29 35 1008.7 1008.7 3.8
30/05:30am 14.6 3.6 9.2 70 2.8 W 57 69 31 37 1008.7 1008.7 3.8
30/05:00am 14.7 3.6 10.1 74 2.4 W 59 69 32 37 1008.6 1008.6 3.8
30/04:30am 14.8 3.7 10.2 74 2.4 W 59 72 32 39 1008.6 1008.6 3.8
30/04:00am 15.0 4.6 11.2 78 2.0 W 57 69 31 37 1008.5 1008.5 3.8
30/03:51am 14.8 6.1 11.4 80 1.8 W 48 67 26 36 1008.5 1008.5 3.8
30/03:30am 14.7 4.6 11.7 82 1.6 W 56 63 30 34 1008.6 1008.6 3.8
30/03:00am 14.7 4.9 11.5 81 1.7 W 54 63 29 34 1008.5 1008.5 3.8
30/02:30am 14.6 3.5 11.7 83 1.6 W 61 69 33 37 1008.5 1008.5 3.8
30/02:17am 14.8 5.2 12.1 84 1.5 W 54 72 29 39 1008.5 1008.5 3.8
30/02:00am 15.3 6.2 12.4 83 1.6 WNW 52 61 28 33 1008.6 1008.6 3.8
30/01:43am 15.2 6.9 12.5 84 1.5 WNW 48 67 26 36 1008.9 1008.9 3.8
30/01:30am 15.1 6.4 12.6 85 1.4 WNW 50 63 27 34 1008.8 1008.8 3.8
30/01:00am 14.8 7.6 13.2 90 0.9 WNW 43 50 23 27 1009.2 1009.2 3.8
30/12:51am 14.6 7.9 13.5 93 0.6 NW 41 48 22 26 1009.2 1009.2 3.8
30/12:30am 14.0 7.1 12.7 92 0.7 NNW 41 50 22 27 1009.5 1009.5 3.8
30/12:00am 14.3 7.1 13.0 92 0.7 NW 43 50 23 27 1009.8 1009.8 3.8
 
Date/Time
CST
Temp
°C
App
Temp
°C
Dew
Point
°C
Rel
Hum
%
Delta-T
°C
Wind Press
QNH
hPa
Press
MSL
hPa
Rain since
9am
mm
Dir  Spd
km/h
Gust
km/h
Spd
kts
Gust
kts
29/11:30pm 13.5 3.8 11.9 90 0.9 NNW 54 65 29 35 1010.1 1010.1 3.8
29/11:00pm 13.9 3.8 11.6 86 1.2 NNW 56 70 30 38 1009.7 1009.7 2.4
29/10:59pm 13.9 4.1 11.6 86 1.2 NNW 54 70 29 38 1009.8 1009.8 2.2
29/10:30pm 13.5 5.0 10.7 83 1.5 NNW 46 52 25 28 1010.4 1010.4 1.2
29/10:00pm 14.1 6.1 10.3 78 2.0 NNW 43 48 23 26 1010.7 1010.7 0.2
29/09:30pm 14.1 6.3 9.7 75 2.3 NNW 41 54 22 29 1010.9 1010.9 0.0
29/09:00pm 14.5 6.0 9.3 71 2.7 NNW 44 56 24 30 1011.0 1011.0 0.0
29/08:30pm 14.7 5.9 9.7 72 2.6 N 46 56 25 30 1011.1 1011.1 0.0
29/08:00pm 14.7 6.4 9.3 70 2.8 N 43 54 23 29 1011.3 1011.3 0.0
29/07:30pm 14.6 7.0 9.2 70 2.8 N 39 50 21 27 1011.7 1011.7 0.0
29/07:00pm 14.6 7.1 9.4 71 2.7 N 39 46 21 25 1011.9 1011.9 0.0
29/06:30pm 14.9 7.2 10.1 73 2.5 NNW 41 48 22 26 1012.2 1012.2 0.0
29/06:00pm 15.1 5.9 9.5 69 2.9 NNW 48 56 26 30 1012.0 1012.0 0.0
29/05:30pm 15.4 6.9 9.3 67 3.1 NNW 44 56 24 30 1012.2 1012.2 0.0
29/05:00pm 15.4 6.9 8.6 64 3.5 NNW 43 54 23 29 1012.3 1012.3 0.0
29/04:30pm 15.4 6.9 9.1 66 3.2 NNW 44 52 24 28 1012.4 1012.4 0.0
29/04:00pm 15.4 7.4 8.9 65 3.3 N 41 52 22 28 1012.5 1012.5 0.0
29/03:30pm 15.2 5.8 8.9 66 3.2 N 48 57 26 31 1012.5 1012.5 0.0
29/03:00pm 15.1 6.0 8.6 65 3.3 N 46 56 25 30 1012.6 1012.6 0.0
29/02:30pm 15.4 6.4 8.9 65 3.3 N 46 57 25 31 1012.8 1012.8 0.0
29/02:00pm 15.1 5.7 8.8 66 3.2 N 48 57 26 31 1013.4 1013.4 0.0
29/01:30pm 14.9 5.6 9.1 68 3.0 N 48 57 26 31 1013.9 1013.9 0.0
29/01:00pm 14.6 4.8 8.8 68 2.9 N 50 63 27 34 1014.5 1014.5 0.0
29/12:30pm 15.0 5.8 9.4 69 2.9 N 48 59 26 32 1015.5 1015.4 0.0
29/12:00pm 14.5 4.1 9.1 70 2.8 N 54 65 29 35 1016.3 1016.2 0.0
29/11:30am 13.6 3.3 8.2 70 2.7 N 52 65 28 35 1016.6 1016.5 0.0
29/11:00am 13.8 2.7 8.6 71 2.6 N 57 69 31 37 1017.1 1017.0 0.0
29/10:30am 13.3 2.2 8.2 71 2.5 N 56 69 30 37 1017.7 1017.6 0.0
29/10:00am 13.1 3.0 8.8 75 2.2 N 52 61 28 33 1018.2 1018.1 0.0
29/09:30am 13.2 2.2 8.5 73 2.3 N 56 69 30 37 1018.5 1018.4 0.0
29/09:00am 13.4 2.9 8.9 74 2.3 N 54 65 29 35 1018.6 1018.5 0.0
29/08:30am 13.3 3.5 8.6 73 2.3 N 50 61 27 33 1018.9 1018.8 0.0
29/08:00am 13.2 3.5 9.1 76 2.1 N 50 59 27 32 1019.1 1019.0 0.0
29/07:30am 13.0 3.2 8.5 74 2.2 N 50 59 27 32 1019.2 1019.1 0.0
29/07:00am 12.8 3.2 8.1 73 2.3 N 48 57 26 31 1019.3 1019.2 0.0
29/06:30am 13.0 4.3 8.3 73 2.3 N 44 52 24 28 1019.6 1019.5 0.0
29/06:00am 13.3 4.8 8.6 73 2.3 N 43 50 23 27 1020.0 1020.0 0.0
29/05:30am 13.2 4.0 7.9 70 2.6 N 46 59 25 32 1020.2 1020.2 0.0
29/05:00am 13.4 4.9 8.5 72 2.5 N 43 50 23 27 1020.3 1020.3 0.0
29/04:30am 13.3 4.7 8.0 70 2.6 N 43 52 23 28 1020.5 1020.5 0.0
29/04:00am 13.1 5.6 7.8 70 2.6 N 37 46 20 25 1020.9 1020.9 0.0
29/03:30am 13.2 5.4 8.3 72 2.4 N 39 48 21 26 1021.2 1021.2 0.0
29/03:00am 13.2 4.2 7.4 68 2.8 N 44 54 24 29 1021.3 1021.3 0.0
29/02:30am 13.6 4.7 6.9 64 3.2 N 43 56 23 30 1021.5 1021.5 0.0
29/02:00am 13.7 4.7 6.6 62 3.4 N 43 50 23 27 1021.7 1021.7 0.0
29/01:30am 13.7 5.5 6.6 62 3.4 N 39 48 21 26 1021.9 1021.9 0.0
29/01:00am 13.5 5.6 7.7 68 2.9 N 39 46 21 25 1022.2 1022.2 0.0
29/12:30am 13.4 5.9 7.8 69 2.7 N 37 44 20 24 1022.5 1022.5 0.0
29/12:00am 13.5 7.2 7.5 67 2.9 N 30 37 16 20 1022.7 1022.7 0.0
 
Date/Time
CST
Temp
°C
App
Temp
°C
Dew
Point
°C
Rel
Hum
%
Delta-T
°C
Wind Press
QNH
hPa
Press
MSL
hPa
Rain since
9am
mm
Dir  Spd
km/h
Gust
km/h
Spd
kts
Gust
kts
28/11:30pm 13.5 6.8 7.5 67 2.9 N 32 35 17 19 1023.0 1023.0 0.0
28/11:00pm 13.6 8.4 7.4 66 3.0 N 24 30 13 16 1023.2 1023.2 0.0
28/10:30pm 13.7 8.4 7.0 64 3.2 N 24 28 13 15 1023.3 1023.3 0.0
28/10:00pm 13.8 8.7 7.6 66 3.1 NNW 24 30 13 16 1023.5 1023.5 0.0
28/09:30pm 13.7 8.1 7.2 65 3.2 NNW 26 32 14 17 1023.8 1023.8 0.0
28/09:00pm 13.7 7.7 7.2 65 3.2 N 28 33 15 18 1023.9 1023.9 0.0
28/08:30pm 14.1 8.3 7.9 66 3.1 NNW 28 32 15 17 1024.0 1024.0 0.0
28/08:00pm 14.1 7.8 7.4 64 3.3 NNW 30 35 16 19 1023.8 1023.8 0.0
28/07:30pm 14.2 7.8 7.0 62 3.5 NNW 30 37 16 20 1023.8 1023.8 0.0
28/07:00pm 14.2 7.4 7.0 62 3.5 NNW 32 39 17 21 1023.5 1023.5 0.0
28/06:30pm 14.3 7.1 7.6 64 3.3 NNW 35 43 19 23 1023.4 1023.4 0.0
28/06:00pm 14.3 7.4 8.9 70 2.7 NNW 35 39 19 21 1023.2 1023.2 0.0
28/05:30pm 14.5 8.3 9.9 74 2.4 NNW 33 41 18 22 1023.1 1023.1 0.0
28/05:00pm 14.7 8.4 9.7 72 2.6 NNW 33 39 18 21 1023.0 1023.0 0.0
28/04:30pm 15.3 7.9 9.9 70 2.8 NW 39 46 21 25 1023.0 1023.0 0.0
28/04:00pm 15.3 8.1 10.5 73 2.5 NW 39 44 21 24 1023.0 1023.0 0.0
28/03:30pm 15.0 7.5 10.8 76 2.2 NW 41 46 22 25 1022.9 1022.9 0.0
28/03:00pm 14.8 10.2 12.3 85 1.4 NW 28 33 15 18 1023.2 1023.2 0.0
28/02:30pm 14.2 7.4 12.1 87 1.1 WNW 39 48 21 26 1023.2 1023.2 0.0
28/02:00pm 14.7 7.8 11.5 81 1.7 NW 39 46 21 25 1023.3 1023.3 0.0
28/01:30pm 14.4 8.3 11.9 85 1.3 NW 35 43 19 23 1023.7 1023.7 0.0
28/01:00pm 14.0 6.5 12.0 88 1.1 NNW 43 50 23 27 1023.8 1023.8 0.0
28/12:30pm 14.5 6.9 11.7 83 1.5 NNW 43 52 23 28 1024.2 1024.2 0.0
28/12:00pm 14.7 7.5 12.0 84 1.5 NNW 41 48 22 26 1024.4 1024.4 0.0
28/11:30am 14.1 6.9 11.8 86 1.2 NW 41 48 22 26 1024.8 1024.8 0.0
28/11:00am 14.2 6.9 11.5 84 1.4 NW 41 48 22 26 1025.0 1025.0 0.0
28/10:30am 14.5 6.8 11.5 82 1.6 NW 43 52 23 28 1024.7 1024.7 0.0
28/10:00am 14.1 7.6 11.8 86 1.2 NW 37 44 20 24 1024.7 1024.7 0.0
28/09:30am 14.1 6.5 11.8 86 1.2 NW 43 48 23 26 1024.5 1024.5 0.0
28/09:00am 14.3 7.5 12.0 86 1.2 NNW 39 44 21 24 1024.2 1024.2 12.6
28/08:30am 14.0 7.1 11.7 86 1.2 NNW 39 43 21 23 1023.8 1023.8 12.6
28/08:00am 13.8 7.7 11.7 87 1.1 NNW 35 41 19 22 1023.7 1023.7 12.6
28/07:30am 13.8 8.6 11.5 86 1.2 NW 30 35 16 19 1023.5 1023.5 12.6
28/07:00am 13.8 7.2 11.5 86 1.2 NW 37 43 20 23 1023.3 1023.3 12.6
28/06:30am 14.0 8.1 11.3 84 1.4 NW 33 43 18 23 1022.7 1022.7 12.6
28/06:00am 13.6 6.7 11.7 88 1.0 NW 39 48 21 26 1022.3 1022.3 12.6
28/05:30am 13.6 7.1 11.8 89 1.0 NW 37 48 20 26 1022.2 1022.2 12.6
28/05:00am 13.8 8.2 12.2 90 0.9 NW 33 39 18 21 1022.1 1022.1 12.6
28/04:30am 13.4 8.2 11.6 89 1.0 NW 30 37 16 20 1022.0 1022.0 12.6
28/04:00am 13.6 7.2 12.0 90 0.9 NNW 37 43 20 23 1021.8 1021.8 12.6
28/03:30am 13.9 8.0 12.3 90 0.9 NW 35 41 19 22 1021.8 1021.8 12.6
28/03:00am 14.0 10.3 12.6 91 0.8 NW 24 32 13 17 1022.1 1022.1 12.4
28/02:30am 13.3 10.7 11.9 91 0.7 NW 17 28 9 15 1022.4 1022.4 11.0
28/02:00am 13.6 9.6 11.7 88 1.0 NNW 24 28 13 15 1022.2 1022.2 4.8
28/01:30am 14.0 9.5 11.3 84 1.4 WNW 26 32 14 17 1022.1 1022.1 4.8
28/01:00am 14.3 9.1 11.5 83 1.5 WNW 30 35 16 19 1022.2 1022.2 4.8
28/12:30am 14.0 7.7 11.2 83 1.5 WNW 35 46 19 25 1022.4 1022.4 4.8
28/12:00am 13.9 9.5 11.6 86 1.2 WNW 26 32 14 17 1022.4 1022.4 4.6
 
Date/Time
CST
Temp
°C
App
Temp
°C
Dew
Point
°C
Rel
Hum
%
Delta-T
°C
Wind Press
QNH
hPa
Press
MSL
hPa
Rain since
9am
mm
Dir  Spd
km/h
Gust
km/h
Spd
kts
Gust
kts
27/11:30pm 14.1 7.6 11.8 86 1.2 WNW 37 43 20 23 1022.4 1022.4 4.6
27/11:00pm 14.2 8.4 11.5 84 1.4 W 33 39 18 21 1022.2 1022.2 4.6
27/10:30pm 13.9 8.8 11.8 87 1.1 WNW 30 39 16 21 1022.2 1022.2 4.6
27/10:25pm 13.4 7.7 11.3 87 1.1 WNW 32 50 17 27 1022.2 1022.2 4.6
27/10:00pm 14.2 8.6 11.4 83 1.5 W 32 39 17 21 1022.1 1022.1 3.0
27/09:47pm 13.8 9.2 11.0 83 1.5 WNW 26 48 14 26 1021.9 1021.9 3.0
27/09:30pm 13.9 9.9 11.8 87 1.1 WNW 24 28 13 15 1022.1 1022.1 3.0
27/09:00pm 13.5 8.7 11.6 88 1.0 WNW 28 37 15 20 1022.2 1022.2 3.0
27/08:30pm 13.8 8.0 11.5 86 1.2 WNW 33 43 18 23 1022.0 1022.0 3.0
27/08:00pm 14.2 11.1 12.1 87 1.1 WNW 20 35 11 19 1021.7 1021.7 3.0
27/07:30pm 13.7 9.1 11.2 85 1.3 WNW 26 30 14 16 1021.8 1021.8 1.8
27/07:00pm 13.5 10.1 11.2 86 1.2 WNW 20 26 11 14 1021.5 1021.5 1.6
27/06:30pm 14.1 9.0 10.5 79 1.9 WNW 28 39 15 21 1021.3 1021.3 0.4
27/06:00pm 14.3 8.8 10.5 78 2.0 W 30 35 16 19 1020.9 1020.9 0.4
27/05:30pm 14.5 7.9 10.1 75 2.3 W 35 43 19 23 1020.7 1020.7 0.4
27/05:00pm 14.7 9.5 10.3 75 2.3 WNW 28 35 15 19 1020.5 1020.5 0.4
27/04:30pm 14.7 8.5 9.5 71 2.7 WNW 32 37 17 20 1020.3 1020.3 0.4
27/04:00pm 15.0 8.6 9.4 69 2.9 W 33 41 18 22 1020.2 1020.2 0.4
27/03:30pm 15.2 8.6 8.7 65 3.3 W 33 39 18 21 1020.2 1020.2 0.4
27/03:00pm 15.3 9.0 9.0 66 3.2 W 32 37 17 20 1020.1 1020.1 0.4
27/02:30pm 15.2 8.7 8.9 66 3.2 W 33 41 18 22 1019.9 1019.9 0.4
27/02:00pm 15.0 8.7 9.6 70 2.8 W 33 37 18 20 1020.2 1020.2 0.4
27/01:30pm 14.6 8.4 9.2 70 2.8 W 32 35 17 19 1020.3 1020.3 0.4
27/01:00pm 14.1 10.6 10.1 77 2.1 W 19 24 10 13 1020.7 1020.7 0.4

Other Formats:

Comma delimited format used in spreadsheet applications
http://www.bom.gov.au/fwo/IDS60801/IDS60801.94804.axf

JavaScript Object Notation format (JSON) in row-major order
http://www.bom.gov.au/fwo/IDS60801/IDS60801.94804.json